createdAt,value
2019-03-20T00:00:34.779Z,1.90
2019-03-20T00:03:03.208Z,1.70
2019-03-20T00:05:31.474Z,1.63
2019-03-20T00:07:59.738Z,2.17
2019-03-20T00:10:28.262Z,1.60
2019-03-20T00:12:56.534Z,1.70
2019-03-20T00:15:24.793Z,1.60
2019-03-20T00:17:53.042Z,2.20
2019-03-20T00:20:21.306Z,1.97
2019-03-20T00:22:49.570Z,1.87
2019-03-20T00:25:17.830Z,1.80
2019-03-20T00:27:46.653Z,1.60
2019-03-20T00:30:18.887Z,1.73
2019-03-20T00:32:47.202Z,1.77
2019-03-20T00:35:15.467Z,1.90
2019-03-20T00:37:43.743Z,1.83
2019-03-20T00:40:15.862Z,1.57
2019-03-20T00:42:44.118Z,1.63
2019-03-20T00:45:17.211Z,2.00
2019-03-20T00:47:45.471Z,1.73
2019-03-20T00:50:15.827Z,1.50
2019-03-20T00:52:44.683Z,1.60
2019-03-20T00:55:13.834Z,1.33
2019-03-20T00:57:42.110Z,1.70
2019-03-20T01:00:13.580Z,1.70
2019-03-20T01:02:41.843Z,2.00
2019-03-20T01:05:12.721Z,1.53
2019-03-20T01:07:40.095Z,1.80
2019-03-20T01:10:11.659Z,2.00
2019-03-20T01:12:40.190Z,1.40
2019-03-20T01:15:09.583Z,1.60
2019-03-20T01:17:37.853Z,1.40
2019-03-20T01:20:09.886Z,1.70
2019-03-20T01:22:38.155Z,1.70
2019-03-20T01:25:08.751Z,1.57
2019-03-20T01:27:37.261Z,1.53
2019-03-20T01:30:09.222Z,1.37
2019-03-20T01:32:37.909Z,1.57
2019-03-20T01:35:06.363Z,1.50
2019-03-20T01:37:34.690Z,1.60
2019-03-20T01:40:03.392Z,1.30
2019-03-20T01:42:31.666Z,1.70
2019-03-20T01:44:59.967Z,1.13
2019-03-20T01:47:28.273Z,1.53
2019-03-20T01:49:56.523Z,1.30
2019-03-20T01:52:24.790Z,1.30
2019-03-20T01:54:53.134Z,1.40
2019-03-20T01:57:21.419Z,1.40
2019-03-20T01:59:49.682Z,1.57
2019-03-20T02:02:17.942Z,1.50
2019-03-20T02:04:46.198Z,1.70
2019-03-20T02:07:14.457Z,1.33
2019-03-20T02:09:42.724Z,1.67
2019-03-20T02:12:11.246Z,1.10
2019-03-20T02:14:39.506Z,1.40
2019-03-20T02:17:07.766Z,1.40
2019-03-20T02:19:36.026Z,1.40
2019-03-20T02:22:04.278Z,1.40
2019-03-20T02:24:32.555Z,1.37
2019-03-20T02:27:00.811Z,1.17
2019-03-20T02:29:29.379Z,1.47
2019-03-20T02:31:57.643Z,1.40
2019-03-20T02:34:25.907Z,1.37
2019-03-20T02:36:54.171Z,1.30
2019-03-20T02:39:22.430Z,1.23
2019-03-20T02:41:50.692Z,1.40
2019-03-20T02:44:18.955Z,1.27
2019-03-20T02:46:47.227Z,1.00
2019-03-20T02:49:15.581Z,1.47
2019-03-20T02:51:43.831Z,1.50
2019-03-20T02:54:12.096Z,1.07
2019-03-20T02:56:40.363Z,1.13
2019-03-20T02:59:08.623Z,1.30
2019-03-20T03:01:36.968Z,0.90
2019-03-20T03:04:05.292Z,1.30
2019-03-20T03:06:33.811Z,1.10
2019-03-20T03:09:02.145Z,1.30
2019-03-20T03:11:30.409Z,1.13
2019-03-20T03:13:58.679Z,1.20
2019-03-20T03:16:26.956Z,1.40
2019-03-20T03:18:55.220Z,1.10
2019-03-20T03:21:23.486Z,1.10
2019-03-20T03:23:51.738Z,0.97
2019-03-20T03:26:20.027Z,1.00
2019-03-20T03:28:48.342Z,1.03
2019-03-20T03:31:16.636Z,1.10
2019-03-20T03:33:44.943Z,1.30
2019-03-20T03:36:21.014Z,1.40
2019-03-20T03:38:43.200Z,1.00
2019-03-20T03:41:11.467Z,1.47
2019-03-20T03:43:39.730Z,1.40
2019-03-20T03:46:07.988Z,1.27
2019-03-20T03:48:36.905Z,1.07
2019-03-20T03:51:05.178Z,1.23
2019-03-20T03:53:33.501Z,1.13
2019-03-20T03:56:01.756Z,1.03
2019-03-20T03:58:32.863Z,1.10
2019-03-20T04:01:00.909Z,0.97
2019-03-20T04:03:29.160Z,1.20
2019-03-20T04:05:58.173Z,1.10
2019-03-20T04:08:26.442Z,1.00
2019-03-20T04:10:55.426Z,0.93
2019-03-20T04:13:24.004Z,1.07
2019-03-20T04:15:52.583Z,1.03
2019-03-20T04:18:20.850Z,0.93
2019-03-20T04:20:49.175Z,1.20
2019-03-20T04:23:17.458Z,1.17
2019-03-20T04:25:45.795Z,1.00
2019-03-20T04:28:14.628Z,0.90
2019-03-20T04:30:42.887Z,1.37
2019-03-20T04:33:11.200Z,1.20
2019-03-20T04:35:39.441Z,1.20
2019-03-20T04:38:08.386Z,1.20
2019-03-20T04:40:36.634Z,1.07
2019-03-20T04:43:04.931Z,1.23
2019-03-20T04:45:33.274Z,0.90
2019-03-20T04:48:01.530Z,0.93
2019-03-20T04:50:29.777Z,1.10
2019-03-20T04:52:58.045Z,1.10
2019-03-20T04:55:26.297Z,1.20
2019-03-20T04:57:54.641Z,1.20
2019-03-20T05:00:23.727Z,1.00
2019-03-20T05:02:52.000Z,1.40
2019-03-20T05:05:20.253Z,0.80
2019-03-20T05:07:48.509Z,1.00
2019-03-20T05:10:20.949Z,1.00
2019-03-20T05:12:49.220Z,1.07
2019-03-20T05:15:17.494Z,1.13
2019-03-20T05:17:45.737Z,0.90
2019-03-20T05:20:18.902Z,0.90
2019-03-20T05:22:47.186Z,1.00
2019-03-20T05:25:15.536Z,2.50
2019-03-20T05:27:43.845Z,2.17
2019-03-20T05:30:14.336Z,4.30
2019-03-20T05:32:42.593Z,4.83
2019-03-20T05:35:10.860Z,5.77
2019-03-20T05:37:39.114Z,6.03
2019-03-20T05:40:17.202Z,4.80
2019-03-20T05:42:45.470Z,5.67
2019-03-20T05:45:14.902Z,6.00
2019-03-20T05:47:43.158Z,5.97
2019-03-20T05:50:15.217Z,5.70
2019-03-20T05:52:43.503Z,5.33
2019-03-20T05:55:11.898Z,5.42
2019-03-20T05:57:40.821Z,4.73
2019-03-20T06:00:11.726Z,5.23
2019-03-20T06:02:39.974Z,5.37
2019-03-20T06:05:08.254Z,5.20
2019-03-20T06:07:36.570Z,4.50
2019-03-20T06:10:11.182Z,4.53
2019-03-20T06:12:39.440Z,3.70
2019-03-20T06:15:08.072Z,3.73
2019-03-20T06:17:36.350Z,3.07
2019-03-20T06:20:09.514Z,3.33
2019-03-20T06:22:37.774Z,3.13
2019-03-20T06:25:08.487Z,2.93
2019-03-20T06:27:36.846Z,2.80
2019-03-20T06:30:08.542Z,2.90
2019-03-20T06:32:37.514Z,2.47
2019-03-20T06:35:07.634Z,2.53
2019-03-20T06:37:36.558Z,2.53
2019-03-20T06:40:07.387Z,2.20
2019-03-20T06:42:36.300Z,2.80
2019-03-20T06:45:07.446Z,2.30
2019-03-20T06:47:35.722Z,2.20
2019-03-20T06:50:07.003Z,2.53
2019-03-20T06:52:35.286Z,2.80
2019-03-20T06:55:04.000Z,2.03
2019-03-20T06:57:32.925Z,2.27
2019-03-20T07:00:24.130Z,2.23
2019-03-20T07:02:53.142Z,1.87
2019-03-20T07:05:33.253Z,1.80
2019-03-20T07:08:01.468Z,1.60
2019-03-20T07:10:41.413Z,1.67
2019-03-20T07:13:09.665Z,1.87
2019-03-20T07:15:37.963Z,1.60
2019-03-20T07:18:06.222Z,1.83
2019-03-20T07:20:34.486Z,2.23
2019-03-20T07:23:02.754Z,1.60
2019-03-20T07:25:31.010Z,1.50
2019-03-20T07:27:59.273Z,1.60
2019-03-20T07:30:27.558Z,1.67
2019-03-20T07:32:55.817Z,1.47
2019-03-20T07:35:24.653Z,1.70
2019-03-20T07:37:56.349Z,1.60
2019-03-20T07:40:22.919Z,1.60
2019-03-20T07:42:51.214Z,1.43
2019-03-20T07:45:19.466Z,1.50
2019-03-20T07:47:47.753Z,1.90
2019-03-20T07:50:16.030Z,1.60
2019-03-20T07:52:44.298Z,1.53
2019-03-20T07:55:12.558Z,1.40
2019-03-20T07:57:40.822Z,1.80
2019-03-20T08:00:11.973Z,1.73
2019-03-20T08:02:40.239Z,1.67
2019-03-20T08:05:09.738Z,1.57
2019-03-20T08:07:38.009Z,1.40
2019-03-20T08:10:14.641Z,1.93
2019-03-20T08:12:43.814Z,1.40
2019-03-20T08:15:14.005Z,1.30
2019-03-20T08:17:42.274Z,1.50
2019-03-20T08:20:16.518Z,1.60
2019-03-20T08:22:44.785Z,1.60
2019-03-20T08:25:13.030Z,1.47
2019-03-20T08:27:41.315Z,1.63
2019-03-20T08:30:13.803Z,1.50
2019-03-20T08:32:42.321Z,1.13
2019-03-20T08:35:12.029Z,1.43
2019-03-20T08:37:40.730Z,1.43
2019-03-20T08:40:14.186Z,1.30
2019-03-20T08:42:42.448Z,0.90
2019-03-20T08:45:13.974Z,1.07
2019-03-20T08:47:42.224Z,1.30
2019-03-20T08:50:20.407Z,1.10
2019-03-20T08:52:49.325Z,1.27
2019-03-20T08:55:18.531Z,1.10
2019-03-20T08:57:46.781Z,1.30
2019-03-20T09:00:20.025Z,1.40
2019-03-20T09:02:48.306Z,0.90
2019-03-20T09:05:16.602Z,1.10
2019-03-20T09:07:47.577Z,1.00
2019-03-20T09:10:19.961Z,0.97
2019-03-20T09:12:48.234Z,1.20
2019-03-20T09:15:17.433Z,1.30
2019-03-20T09:17:45.687Z,1.40
2019-03-20T09:20:17.950Z,1.10
2019-03-20T09:22:46.226Z,1.00
2019-03-20T09:25:18.834Z,1.20
2019-03-20T09:27:47.090Z,1.40
2019-03-20T09:30:29.390Z,1.10
2019-03-20T09:32:57.637Z,1.47
2019-03-20T09:35:25.931Z,1.00
2019-03-20T09:37:54.186Z,1.40
2019-03-20T09:40:28.939Z,0.90
2019-03-20T09:42:57.186Z,1.23
2019-03-20T09:45:25.454Z,1.70
2019-03-20T09:47:53.706Z,1.50
2019-03-20T09:50:28.702Z,1.00
2019-03-20T09:52:56.958Z,1.20
2019-03-20T09:55:25.231Z,1.17
2019-03-20T09:57:53.745Z,1.20
2019-03-20T10:00:23.260Z,1.33
2019-03-20T10:02:51.830Z,1.20
2019-03-20T10:05:20.119Z,1.27
2019-03-20T10:07:48.432Z,1.10
2019-03-20T10:10:19.193Z,1.33
2019-03-20T10:12:48.029Z,1.00
2019-03-20T10:15:27.423Z,1.00
2019-03-20T10:17:55.698Z,0.93
2019-03-20T10:20:23.958Z,1.10
2019-03-20T10:22:52.214Z,1.20
2019-03-20T10:25:20.476Z,1.27
2019-03-20T10:27:48.725Z,1.40
2019-03-20T10:30:21.802Z,1.77
2019-03-20T10:32:50.057Z,1.27
2019-03-20T10:35:18.409Z,1.70
2019-03-20T10:37:46.774Z,2.10
2019-03-20T10:40:25.777Z,1.40
2019-03-20T10:42:54.032Z,1.60
2019-03-20T10:45:22.620Z,2.00
2019-03-20T10:47:52.973Z,1.60
2019-03-20T10:50:22.234Z,1.47
2019-03-20T10:52:50.583Z,1.90
2019-03-20T10:55:19.404Z,1.73
2019-03-20T10:57:47.761Z,1.50
2019-03-20T11:00:25.986Z,1.50
2019-03-20T11:02:54.294Z,2.00
2019-03-20T11:05:22.605Z,1.67
2019-03-20T11:07:50.886Z,1.97
2019-03-20T11:10:23.655Z,1.70
2019-03-20T11:12:51.938Z,1.53
2019-03-20T11:15:21.033Z,1.60
2019-03-20T11:17:49.295Z,1.73
2019-03-20T11:20:21.758Z,1.73
2019-03-20T11:22:50.047Z,1.90
2019-03-20T11:25:29.134Z,1.63
2019-03-20T11:27:57.434Z,1.13
2019-03-20T11:30:29.947Z,1.33
2019-03-20T11:32:58.204Z,1.40
2019-03-20T11:35:26.464Z,1.43
2019-03-20T11:37:54.735Z,1.33
2019-03-20T11:40:27.803Z,1.40
2019-03-20T11:42:56.091Z,1.30
2019-03-20T11:45:24.351Z,1.47
2019-03-20T11:47:52.681Z,1.27
2019-03-20T11:50:41.453Z,1.33
2019-03-20T11:53:10.258Z,1.10
2019-03-20T11:55:38.727Z,1.30
2019-03-20T11:58:07.401Z,1.73
2019-03-20T12:00:35.718Z,1.20
2019-03-20T12:03:04.350Z,1.13
2019-03-20T12:05:32.641Z,1.60
2019-03-20T12:08:00.897Z,1.10
2019-03-20T12:10:35.087Z,1.13
2019-03-20T12:13:03.388Z,1.30
2019-03-20T12:15:31.679Z,1.40
2019-03-20T12:18:00.027Z,1.40
2019-03-20T12:20:28.313Z,1.30
2019-03-20T12:22:56.642Z,1.73
2019-03-20T12:25:38.801Z,2.27
2019-03-20T12:28:07.108Z,1.60
2019-03-20T12:30:36.193Z,1.60
2019-03-20T12:33:04.881Z,1.73
2019-03-20T12:35:35.413Z,1.47
2019-03-20T12:38:13.828Z,1.93
2019-03-20T12:40:33.669Z,6.23
2019-03-20T12:43:01.940Z,5.60
2019-03-20T12:45:32.046Z,6.10
2019-03-20T12:48:00.307Z,3.83
2019-03-20T12:50:28.608Z,3.30
2019-03-20T12:52:57.010Z,2.80
2019-03-20T12:55:25.270Z,3.00
2019-03-20T12:57:53.521Z,2.77
2019-03-20T13:00:27.396Z,2.83
2019-03-20T13:02:55.454Z,2.70
2019-03-20T13:05:23.717Z,2.70
2019-03-20T13:07:51.970Z,2.17
2019-03-20T13:10:27.676Z,2.63
2019-03-20T13:12:56.497Z,2.80
2019-03-20T13:15:33.322Z,3.47
2019-03-20T13:18:02.122Z,2.90
2019-03-20T13:20:30.677Z,3.10
2019-03-20T13:23:07.409Z,2.73
2019-03-20T13:25:35.684Z,2.60
2019-03-20T13:28:03.936Z,3.10
2019-03-20T13:30:44.230Z,2.67
2019-03-20T13:33:13.045Z,3.00
2019-03-20T13:35:41.310Z,2.53
2019-03-20T13:38:09.573Z,2.77
2019-03-20T13:40:37.847Z,2.50
2019-03-20T13:43:06.669Z,2.10
2019-03-20T13:45:35.006Z,2.57
2019-03-20T13:48:03.257Z,2.30
2019-03-20T13:50:31.529Z,2.07
2019-03-20T13:52:59.787Z,2.23
2019-03-20T13:55:28.065Z,2.87
2019-03-20T13:57:56.342Z,4.27
2019-03-20T14:00:25.638Z,4.10
2019-03-20T14:02:53.898Z,2.67
2019-03-20T14:05:22.150Z,2.30
2019-03-20T14:07:50.414Z,2.00
2019-03-20T14:10:25.550Z,2.03
2019-03-20T14:12:53.673Z,2.87
2019-03-20T14:15:22.005Z,2.33
2019-03-20T14:17:50.272Z,1.87
2019-03-20T14:20:32.744Z,2.10
2019-03-20T14:23:01.485Z,2.60
2019-03-20T14:25:29.733Z,2.00
2019-03-20T14:27:57.997Z,3.00
2019-03-20T14:30:29.649Z,2.40
2019-03-20T14:32:58.167Z,2.20
2019-03-20T14:35:26.460Z,2.10
2019-03-20T14:37:54.789Z,1.93
2019-03-20T14:40:31.653Z,2.50
2019-03-20T14:42:55.368Z,2.00
2019-03-20T14:45:23.777Z,2.00
2019-03-20T14:47:52.077Z,2.43
2019-03-20T14:50:33.094Z,2.37
2019-03-20T14:53:01.417Z,2.20
2019-03-20T14:55:29.672Z,2.40
2019-03-20T14:57:57.962Z,1.80
2019-03-20T15:00:30.074Z,2.20
2019-03-20T15:02:58.362Z,2.10
2019-03-20T15:05:26.622Z,2.50
2019-03-20T15:07:55.217Z,1.93
2019-03-20T15:10:25.497Z,2.13
2019-03-20T15:12:54.306Z,2.10
2019-03-20T15:15:34.505Z,2.13
2019-03-20T15:18:03.370Z,2.30
2019-03-20T15:20:32.265Z,1.73
2019-03-20T15:23:00.522Z,1.60
2019-03-20T15:25:29.140Z,1.93
2019-03-20T15:27:58.321Z,1.60
2019-03-20T15:30:29.515Z,1.90
2019-03-20T15:32:57.070Z,1.60
2019-03-20T15:35:25.345Z,1.63
2019-03-20T15:37:53.614Z,1.97
2019-03-20T15:40:23.634Z,2.20
2019-03-20T15:42:52.589Z,1.90
2019-03-20T15:45:20.846Z,1.67
2019-03-20T15:47:49.106Z,2.17
2019-03-20T15:50:18.398Z,1.37
2019-03-20T15:52:47.241Z,1.77
2019-03-20T15:55:21.494Z,2.30
2019-03-20T15:57:49.761Z,1.70
2019-03-20T16:00:22.697Z,1.63
2019-03-20T16:02:53.903Z,1.60
2019-03-20T16:05:22.166Z,1.70
2019-03-20T16:07:50.426Z,1.60
2019-03-20T16:10:22.686Z,1.67
2019-03-20T16:12:50.941Z,1.73
2019-03-20T16:15:20.743Z,2.10
2019-03-20T16:17:49.006Z,1.97
2019-03-20T16:20:17.266Z,1.57
2019-03-20T16:22:45.543Z,2.40
2019-03-20T16:25:18.069Z,1.60
2019-03-20T16:27:46.322Z,1.87
2019-03-20T16:30:17.405Z,1.37
2019-03-20T16:32:45.653Z,1.63
2019-03-20T16:35:14.092Z,1.57
2019-03-20T16:37:42.941Z,1.60
2019-03-20T16:40:23.195Z,1.83
2019-03-20T16:42:51.474Z,1.80
2019-03-20T16:45:28.217Z,1.87
2019-03-20T16:47:56.474Z,1.70
2019-03-20T16:50:24.735Z,1.43
2019-03-20T16:52:53.057Z,1.33
2019-03-20T16:55:21.354Z,1.23
2019-03-20T16:57:49.605Z,1.57
2019-03-20T17:00:25.323Z,1.73
2019-03-20T17:02:53.577Z,1.40
2019-03-20T17:05:22.279Z,1.53
2019-03-20T17:07:50.525Z,1.20
2019-03-20T17:10:27.342Z,1.37
2019-03-20T17:12:55.591Z,1.50
2019-03-20T17:15:28.498Z,1.30
2019-03-20T17:17:56.751Z,1.70
2019-03-20T17:20:25.010Z,1.77
2019-03-20T17:22:53.826Z,2.17
2019-03-20T17:25:22.101Z,1.40
2019-03-20T17:27:50.379Z,2.43
2019-03-20T17:30:29.715Z,1.27
2019-03-20T17:32:57.969Z,1.40
2019-03-20T17:35:26.230Z,1.60
2019-03-20T17:37:54.512Z,1.40
2019-03-20T17:40:23.702Z,1.50
2019-03-20T17:42:51.982Z,1.63
2019-03-20T17:45:22.546Z,1.70
2019-03-20T17:47:50.811Z,1.30
2019-03-20T17:50:24.335Z,1.50
2019-03-20T17:52:52.622Z,1.30
2019-03-20T17:55:20.872Z,1.37
2019-03-20T17:57:49.129Z,1.80
2019-03-20T18:00:21.986Z,1.20
2019-03-20T18:02:50.279Z,1.27
2019-03-20T18:05:18.534Z,1.43
2019-03-20T18:07:46.797Z,1.40
2019-03-20T18:10:15.562Z,1.30
2019-03-20T18:12:43.882Z,0.90
2019-03-20T18:15:13.882Z,1.30
2019-03-20T18:17:42.150Z,1.30
2019-03-20T18:20:18.476Z,1.60
2019-03-20T18:22:46.763Z,1.53
2019-03-20T18:25:15.584Z,1.40
2019-03-20T18:27:43.846Z,1.47
2019-03-20T18:30:17.097Z,1.00
2019-03-20T18:32:45.366Z,1.60
2019-03-20T18:35:13.990Z,1.60
2019-03-20T18:37:42.304Z,1.43
2019-03-20T18:40:18.760Z,1.40
2019-03-20T18:42:47.010Z,1.40
2019-03-20T18:45:20.668Z,1.37
2019-03-20T18:47:49.010Z,1.23
2019-03-20T18:50:18.826Z,1.30
2019-03-20T18:52:47.550Z,1.70
2019-03-20T18:55:17.797Z,1.20
2019-03-20T18:57:46.069Z,1.40
2019-03-20T19:00:19.699Z,1.40
2019-03-20T19:02:48.180Z,1.60
2019-03-20T19:05:19.631Z,1.57
2019-03-20T19:07:47.972Z,2.27
2019-03-20T19:10:16.380Z,2.23
2019-03-20T19:12:45.798Z,1.97
2019-03-20T19:15:14.254Z,1.73
2019-03-20T19:17:42.543Z,1.50
2019-03-20T19:20:12.904Z,1.20
2019-03-20T19:22:41.249Z,1.50
2019-03-20T19:25:12.242Z,1.30
2019-03-20T19:27:40.774Z,1.20
2019-03-20T19:30:23.001Z,1.70
2019-03-20T19:32:51.589Z,1.40
2019-03-20T19:35:19.845Z,1.60
2019-03-20T19:37:48.107Z,1.80
2019-03-20T19:40:20.525Z,2.00
2019-03-20T19:42:48.838Z,1.73
2019-03-20T19:45:20.146Z,1.30
2019-03-20T19:47:48.407Z,1.50
2019-03-20T19:50:23.679Z,1.67
2019-03-20T19:52:52.006Z,1.90
2019-03-20T19:55:20.602Z,1.57
2019-03-20T19:57:48.855Z,2.00
2019-03-20T20:00:44.285Z,1.63
2019-03-20T20:03:12.538Z,1.43
2019-03-20T20:05:40.799Z,1.50
2019-03-20T20:08:09.095Z,1.97
2019-03-20T20:10:37.697Z,1.50
2019-03-20T20:13:06.279Z,1.83
2019-03-20T20:15:35.505Z,1.63
2019-03-20T20:18:03.779Z,1.70
2019-03-20T20:20:37.193Z,1.70
2019-03-20T20:23:05.474Z,1.63
2019-03-20T20:25:33.736Z,1.63
2019-03-20T20:28:01.997Z,1.83
2019-03-20T20:30:30.253Z,1.73
2019-03-20T20:32:58.500Z,1.60
2019-03-20T20:35:26.766Z,1.80
2019-03-20T20:37:55.014Z,1.80
2019-03-20T20:40:28.120Z,1.63
2019-03-20T20:45:19.308Z,1.60
2019-03-20T20:47:47.713Z,1.70
2019-03-20T20:50:17.438Z,1.43
2019-03-20T20:52:46.517Z,1.73
2019-03-20T20:55:19.114Z,2.17
2019-03-20T20:57:47.373Z,1.50
2019-03-20T21:00:17.726Z,2.20
2019-03-20T21:02:46.367Z,2.33
2019-03-20T21:05:14.653Z,2.60
2019-03-20T21:07:42.978Z,1.90
2019-03-20T21:10:13.701Z,2.17
2019-03-20T21:12:42.830Z,1.93
2019-03-20T21:15:34.479Z,1.73
2019-03-20T21:18:15.175Z,2.13
2019-03-20T21:20:48.367Z,1.30
2019-03-20T21:23:41.155Z,1.70
2019-03-20T21:26:12.467Z,1.97
2019-03-20T21:28:52.518Z,1.90
2019-03-20T21:31:24.089Z,1.90
2019-03-20T21:34:28.651Z,2.50
2019-03-20T21:37:31.689Z,1.87
2019-03-20T21:39:59.954Z,1.90
2019-03-20T21:42:34.210Z,2.03
2019-03-20T21:45:22.347Z,2.30
2019-03-20T21:47:50.650Z,2.13
2019-03-20T21:50:24.958Z,2.23
2019-03-20T21:52:53.231Z,1.67
2019-03-20T21:55:27.761Z,2.37
2019-03-20T21:58:14.073Z,1.97
2019-03-20T22:01:05.118Z,2.23
2019-03-20T22:03:33.395Z,1.77
2019-03-20T22:06:07.878Z,1.90
2019-03-20T22:08:36.159Z,1.70
2019-03-20T22:11:27.290Z,1.90
2019-03-20T22:13:58.810Z,1.60
2019-03-20T22:16:30.338Z,1.87
2019-03-20T22:19:05.048Z,2.27
2019-03-20T22:21:39.771Z,2.07
2019-03-20T22:24:14.075Z,2.00
2019-03-20T22:27:08.378Z,1.60
2019-03-20T22:29:36.946Z,1.60
2019-03-20T22:32:30.879Z,1.73
2019-03-20T22:35:19.090Z,1.60
2019-03-20T22:37:47.552Z,1.70
2019-03-20T22:40:20.378Z,1.60
2019-03-20T22:42:54.562Z,1.77
2019-03-20T22:45:42.713Z,2.23
2019-03-20T22:48:29.302Z,1.40
2019-03-20T22:51:12.658Z,1.80
2019-03-20T22:54:03.868Z,1.90
2019-03-20T22:56:38.399Z,1.60
2019-03-20T22:59:06.686Z,1.77
2019-03-20T23:01:43.786Z,1.70
2019-03-20T23:04:21.005Z,1.63
2019-03-20T23:06:49.284Z,1.83
2019-03-20T23:09:17.553Z,1.67
2019-03-20T23:11:45.837Z,1.60
2019-03-20T23:14:14.093Z,1.50
2019-03-20T23:16:42.354Z,1.57
2019-03-20T23:19:10.633Z,1.60
2019-03-20T23:21:38.881Z,1.90
2019-03-20T23:24:07.495Z,1.70
2019-03-20T23:26:35.742Z,1.40
2019-03-20T23:29:04.030Z,1.43
2019-03-20T23:31:32.618Z,2.03
2019-03-20T23:34:00.883Z,1.77
2019-03-20T23:36:29.209Z,1.53
2019-03-20T23:38:57.470Z,1.70
2019-03-20T23:41:25.737Z,1.70
2019-03-20T23:43:54.284Z,1.60
2019-03-20T23:46:22.560Z,1.50
2019-03-20T23:49:06.408Z,1.33
2019-03-20T23:51:36.509Z,1.20
2019-03-20T23:54:05.748Z,1.80
2019-03-20T23:56:39.742Z,1.27
2019-03-20T23:59:08.386Z,1.30
